Time;durP1;ratioP1;P1;durP2;ratioP2;P2;SDS_P1;SDS_P2;PMS_P1;PMS_P2;Temp;Humidity;BMP_temperature;BMP_pressure;BME280_temperature;BME280_humidity;BME280_pressure;Samples;Min_cycle;Max_cycle;Signal;HPM_P1;HPM_P2
2022/09/26 00:01:10;;;;;;;1999.90;999.90;;;11.00;99.90;;;;;;5113827;28;20047;-61
2022/09/26 00:03:36;;;;;;;1872.78;857.42;;;11.00;99.90;;;;;;5133606;28;20099;-61
2022/09/26 00:06:05;;;;;;;1999.90;999.90;;;11.00;99.90;;;;;;5129889;28;20132;-61
2022/09/26 00:08:32;;;;;;;1999.90;999.90;;;11.10;99.90;;;;;;5112728;28;20129;-61
2022/09/26 00:11:00;;;;;;;1999.90;999.90;;;11.10;99.90;;;;;;5113018;28;20046;-61
2022/09/26 00:13:27;;;;;;;1999.90;875.17;;;11.10;99.90;;;;;;5124397;28;20047;-59
2022/09/26 00:15:54;;;;;;;1999.90;999.90;;;11.10;99.90;;;;;;5126203;28;20039;-59
2022/09/26 00:18:20;;;;;;;1999.90;999.90;;;11.10;99.90;;;;;;5133020;28;20118;-59
2022/09/26 00:20:47;;;;;;;1999.90;999.90;;;11.10;99.90;;;;;;5114322;27;20059;-59
2022/09/26 00:23:13;;;;;;;1335.47;579.83;;;11.10;99.90;;;;;;5136805;27;20050;-58
2022/09/26 00:25:50;;;;;;;1999.90;999.90;;;11.10;99.90;;;;;;5118035;27;20105;-59
2022/09/26 00:28:16;;;;;;;1999.90;999.90;;;11.10;99.90;;;;;;5115991;28;20043;-59
2022/09/26 00:30:43;;;;;;;1999.90;999.90;;;11.10;99.90;;;;;;5097698;28;20565;-58
2022/09/26 00:33:09;;;;;;;1999.90;999.90;;;11.10;99.90;;;;;;5123548;27;20476;-58
2022/09/26 00:35:35;;;;;;;1716.82;802.85;;;11.10;99.90;;;;;;5115646;28;20136;-59
2022/09/26 00:38:02;;;;;;;1999.90;999.90;;;11.10;99.90;;;;;;5116169;28;20108;-58
2022/09/26 00:40:29;;;;;;;1999.90;999.90;;;11.10;99.90;;;;;;5116459;28;20465;-58
2022/09/26 00:42:55;;;;;;;1999.90;999.90;;;11.10;99.90;;;;;;5115602;27;20075;-58
2022/09/26 00:45:23;;;;;;;1999.90;999.90;;;11.20;99.90;;;;;;5114311;28;20054;-58
2022/09/26 00:47:57;;;;;;;1822.18;821.75;;;11.20;99.90;;;;;;5116195;28;20039;-59
2022/09/26 00:50:27;;;;;;;1488.93;628.35;;;11.20;99.90;;;;;;5115559;27;20473;-59
2022/09/26 00:53:02;;;;;;;1999.90;999.90;;;11.20;99.90;;;;;;5115835;28;20035;-59
2022/09/26 00:55:33;;;;;;;1835.43;828.70;;;11.20;99.90;;;;;;5115323;28;20040;-59
2022/09/26 00:58:08;;;;;;;1792.05;683.55;;;11.20;99.90;;;;;;5115891;28;20039;-59
2022/09/26 01:00:34;;;;;;;1695.85;656.65;;;11.10;99.90;;;;;;5114101;28;20398;-59
2022/09/26 01:03:01;;;;;;;1999.90;999.90;;;11.10;99.90;;;;;;5113775;28;20051;-59
2022/09/26 01:05:27;;;;;;;1999.90;999.90;;;11.10;99.90;;;;;;5115742;28;20405;-59
2022/09/26 01:07:55;;;;;;;1404.10;399.83;;;11.10;99.90;;;;;;5115355;28;20059;-58
2022/09/26 01:10:23;;;;;;;1999.90;999.90;;;11.10;99.90;;;;;;5113701;28;20595;-59
2022/09/26 01:12:50;;;;;;;1999.90;999.90;;;11.00;99.90;;;;;;5115649;27;20054;-58
2022/09/26 01:15:15;;;;;;;1999.90;999.90;;;11.00;99.90;;;;;;5117225;27;20062;-59
2022/09/26 01:17:43;;;;;;;1999.90;835.80;;;11.00;99.90;;;;;;5125241;27;20409;-58
2022/09/26 01:20:35;;;;;;;1999.90;999.90;;;11.00;99.90;;;;;;5096935;28;20052;-58
2022/09/26 01:23:09;;;;;;;1999.90;999.90;;;10.90;99.90;;;;;;5115038;28;20393;-58
2022/09/26 01:25:55;;;;;;;1999.90;999.90;;;10.90;99.90;;;;;;5098230;27;20050;-59
2022/09/26 01:28:49;;;;;;;1886.13;861.58;;;10.90;99.90;;;;;;5117734;27;20047;-58
2022/09/26 01:31:42;;;;;;;1999.90;999.90;;;10.90;99.90;;;;;;5116407;27;20051;-59
2022/09/26 01:34:17;;;;;;;1810.93;825.17;;;10.90;99.90;;;;;;5098289;28;20036;-58
2022/09/26 01:37:06;;;;;;;1445.88;631.55;;;10.90;99.90;;;;;;5123142;27;20055;-59
2022/09/26 01:39:51;;;;;;;1999.90;999.90;;;10.90;99.90;;;;;;5085702;27;20046;-59
2022/09/26 01:42:31;;;;;;;1999.90;999.90;;;10.90;99.90;;;;;;5096678;28;20503;-59
2022/09/26 01:45:10;;;;;;;1999.90;999.90;;;10.90;99.90;;;;;;5114024;27;20093;-58
2022/09/26 01:47:43;;;;;;;1936.40;856.08;;;10.90;99.90;;;;;;5117683;27;20416;-59
2022/09/26 01:50:16;;;;;;;;;;;10.90;99.90;;;;;;5124847;27;20039;-59
2022/09/26 01:52:46;;;;;;;;;;;10.90;99.90;;;;;;5117941;27;20028;-59
2022/09/26 01:55:17;;;;;;;1999.90;999.90;;;10.90;99.90;;;;;;5123850;27;20381;-59
2022/09/26 01:57:53;;;;;;;1999.90;999.90;;;11.00;99.90;;;;;;5086003;27;20047;-59
2022/09/26 02:00:20;;;;;;;1999.90;999.90;;;11.00;99.90;;;;;;5103949;27;20043;-59
2022/09/26 02:02:48;;;;;;;1999.90;999.90;;;11.00;99.90;;;;;;5088464;28;20043;-59
2022/09/26 02:05:14;;;;;;;1999.90;999.90;;;10.90;99.90;;;;;;5125608;27;20379;-58
2022/09/26 02:07:52;;;;;;;1999.90;999.90;;;11.00;99.90;;;;;;5100710;28;20043;-59
2022/09/26 02:10:24;;;;;;;1999.90;999.90;;;11.00;99.90;;;;;;5106534;27;20480;-59
2022/09/26 02:12:53;;;;;;;1999.90;999.90;;;11.10;99.90;;;;;;5123776;27;20043;-59
2022/09/26 02:15:24;;;;;;;1999.90;999.90;;;11.10;99.90;;;;;;5124543;27;20039;-59
2022/09/26 02:17:57;;;;;;;1999.90;999.90;;;11.00;99.90;;;;;;5121369;27;20417;-59
2022/09/26 02:20:30;;;;;;;1999.90;999.90;;;11.10;99.90;;;;;;5084996;27;20040;-59
2022/09/26 02:22:58;;;;;;;1999.90;999.90;;;11.10;99.90;;;;;;5098934;28;19920;-59
2022/09/26 02:25:24;;;;;;;1999.90;999.90;;;11.10;99.90;;;;;;5096047;28;20557;-59
2022/09/26 02:27:50;;;;;;;;;;;11.10;99.90;;;;;;5099744;27;20056;-59
2022/09/26 02:30:16;;;;;;;1999.90;999.90;;;11.10;99.90;;;;;;5116312;27;19930;-58
2022/09/26 02:32:43;;;;;;;1999.90;999.90;;;11.10;99.90;;;;;;5116344;27;20594;-59
2022/09/26 02:37:54;;;;;;;1999.90;999.90;;;11.00;99.90;;;;;;5095335;28;20055;-59
2022/09/26 02:40:34;;;;;;;1999.90;932.97;;;11.00;99.90;;;;;;5102646;28;20478;-59
2022/09/26 02:43:26;;;;;;;1999.90;849.25;;;10.90;99.90;;;;;;5100859;27;20164;-59
2022/09/26 02:46:12;;;;;;;1872.27;762.17;;;10.80;99.90;;;;;;5115331;27;20051;-59
2022/09/26 02:49:06;;;;;;;1999.90;999.90;;;10.70;99.90;;;;;;5115013;27;20058;-59
2022/09/26 02:51:41;;;;;;;1999.90;999.90;;;10.60;99.90;;;;;;5115572;27;20047;-59
2022/09/26 02:54:21;;;;;;;1750.35;790.20;;;10.50;99.90;;;;;;5112897;27;20552;-59
2022/09/26 02:57:05;;;;;;;1999.90;999.90;;;10.40;99.90;;;;;;5111789;28;20056;-59
2022/09/26 02:59:50;;;;;;;1999.90;999.90;;;10.30;99.90;;;;;;5112242;28;20088;-58
2022/09/26 03:02:29;;;;;;;1999.90;999.90;;;10.30;99.90;;;;;;5094288;28;20055;-59
2022/09/26 03:05:15;;;;;;;1999.90;999.90;;;10.20;99.90;;;;;;5094979;28;20036;-59
2022/09/26 03:07:55;;;;;;;1622.97;617.55;;;10.20;99.90;;;;;;5113563;28;20382;-59
2022/09/26 03:10:24;;;;;;;1999.90;999.90;;;10.20;99.90;;;;;;5111650;28;20542;-59
2022/09/26 03:12:51;;;;;;;1625.53;769.20;;;10.20;99.90;;;;;;5097217;28;20081;-59
2022/09/26 03:15:19;;;;;;;1999.90;999.90;;;10.20;99.90;;;;;;5095203;28;20096;-58
2022/09/26 03:17:51;;;;;;;1999.90;942.67;;;10.20;99.90;;;;;;5094145;28;20062;-59
2022/09/26 03:20:21;;;;;;;1999.90;899.50;;;10.20;99.90;;;;;;5102421;28;20043;-59
2022/09/26 03:22:48;;;;;;;1999.90;964.72;;;10.20;99.90;;;;;;5115139;27;20658;-59
2022/09/26 03:25:18;;;;;;;1999.90;999.90;;;10.20;99.90;;;;;;5133407;27;20047;-59
2022/09/26 03:27:52;;;;;;;1999.90;999.90;;;10.30;99.90;;;;;;5115619;28;20078;-59
2022/09/26 03:30:19;;;;;;;1999.90;999.90;;;10.20;99.90;;;;;;5093907;28;20111;-59
2022/09/26 03:33:03;;;;;;;1999.90;890.78;;;10.30;99.90;;;;;;5115037;28;20047;-59
2022/09/26 03:35:29;;;;;;;1999.90;999.90;;;10.30;99.90;;;;;;5115300;28;20422;-59
2022/09/26 03:37:55;;;;;;;1999.90;999.90;;;10.20;99.90;;;;;;5114802;28;20045;-59
2022/09/26 03:40:21;;;;;;;1999.90;999.90;;;10.20;99.90;;;;;;5094392;28;20122;-59
2022/09/26 03:43:00;;;;;;;1999.90;999.90;;;10.30;99.90;;;;;;5111294;28;20106;-59
2022/09/26 03:45:27;;;;;;;1999.90;999.90;;;10.20;99.90;;;;;;5111225;28;20050;-59
2022/09/26 03:47:58;;;;;;;1999.90;999.90;;;10.30;99.90;;;;;;5111670;28;20048;-59
2022/09/26 03:50:24;;;;;;;1999.90;993.58;;;10.30;99.90;;;;;;5095021;28;20094;-59
2022/09/26 03:52:51;;;;;;;1999.90;999.90;;;10.30;99.90;;;;;;5112447;28;20083;-59
2022/09/26 03:55:17;;;;;;;1999.90;999.90;;;10.40;99.90;;;;;;5096197;28;20070;-59
2022/09/26 03:57:44;;;;;;;1999.90;883.50;;;10.40;99.90;;;;;;5118249;27;20126;-59
2022/09/26 04:00:21;;;;;;;1999.90;901.33;;;10.30;99.90;;;;;;5118935;27;20043;-59
2022/09/26 04:02:48;;;;;;;1999.90;999.90;;;10.30;99.90;;;;;;5119296;27;20051;-59
2022/09/26 04:05:30;;;;;;;1999.90;999.90;;;10.30;99.90;;;;;;5113855;28;20054;-59
2022/09/26 04:07:58;;;;;;;1999.90;939.13;;;10.30;99.90;;;;;;5115888;28;20118;-59
2022/09/26 04:10:26;;;;;;;1999.90;999.90;;;10.30;99.90;;;;;;5119193;27;20050;-59
2022/09/26 04:12:55;;;;;;;1999.90;996.92;;;10.20;99.90;;;;;;5118069;27;20104;-58
2022/09/26 04:15:22;;;;;;;1999.90;999.90;;;10.20;99.90;;;;;;5135815;27;20046;-59
2022/09/26 04:17:54;;;;;;;1999.90;999.90;;;10.20;99.90;;;;;;5101607;27;20058;-59
2022/09/26 04:20:22;;;;;;;1999.90;999.90;;;10.20;99.90;;;;;;5114365;28;20048;-59
2022/09/26 04:22:48;;;;;;;1999.90;999.90;;;10.20;99.90;;;;;;5102561;28;20100;-59
2022/09/26 04:25:14;;;;;;;1999.90;999.90;;;10.30;99.90;;;;;;5081425;28;20051;-59
2022/09/26 04:27:39;;;;;;;1999.90;999.90;;;10.20;99.90;;;;;;5115581;28;20040;-59
2022/09/26 04:30:07;;;;;;;1999.90;999.90;;;10.30;99.90;;;;;;5100984;27;20058;-59
2022/09/26 04:32:44;;;;;;;1999.90;999.90;;;10.20;99.90;;;;;;5107306;28;20047;-59
2022/09/26 04:35:28;;;;;;;1999.90;999.90;;;10.30;99.90;;;;;;5121731;27;20039;-59
2022/09/26 04:37:54;;;;;;;1999.90;999.90;;;10.20;99.90;;;;;;5106582;27;20031;-59
2022/09/26 04:40:21;;;;;;;1997.85;999.90;;;10.20;99.90;;;;;;5088319;27;20039;-59
2022/09/26 04:42:58;;;;;;;1999.90;999.90;;;10.20;99.90;;;;;;5104273;28;20040;-59
2022/09/26 04:45:25;;;;;;;1999.90;999.90;;;10.30;99.90;;;;;;5105207;28;20043;-59
2022/09/26 04:47:52;;;;;;;1999.90;999.90;;;10.20;99.90;;;;;;5108258;28;20043;-59
2022/09/26 04:50:44;;;;;;;1999.90;999.90;;;10.20;99.90;;;;;;5115625;27;20040;-59
2022/09/26 04:53:10;;;;;;;1999.90;999.90;;;10.20;99.90;;;;;;5115062;28;20055;-59
2022/09/26 04:55:43;;;;;;;;;;;10.20;99.90;;;;;;5114103;28;20043;-59
2022/09/26 04:58:09;;;;;;;;;;;10.20;99.90;;;;;;5117416;27;20243;-59
2022/09/26 05:00:35;;;;;;;;;;;10.20;99.90;;;;;;5118705;27;20406;-59
2022/09/26 05:03:03;;;;;;;1999.90;999.90;;;10.20;99.90;;;;;;5100417;27;19919;-59
2022/09/26 05:05:31;;;;;;;;;;;10.20;99.90;;;;;;5117650;27;20517;-59
2022/09/26 05:07:57;;;;;;;;;;;10.20;99.90;;;;;;5113409;28;19976;-59
2022/09/26 05:10:23;;;;;;;;;;;10.20;99.90;;;;;;5117930;27;19927;-59
2022/09/26 05:12:57;;;;;;;;;;;10.20;99.90;;;;;;5100858;27;19927;-59
2022/09/26 05:15:22;;;;;;;;;;;10.20;99.90;;;;;;5117535;27;19923;-59
2022/09/26 05:17:54;;;;;;;;;;;10.20;99.90;;;;;;5115549;28;20381;-59
2022/09/26 05:20:22;;;;;;;;;;;10.20;99.90;;;;;;5106177;28;20340;-59
2022/09/26 05:22:56;;;;;;;;;;;10.20;99.90;;;;;;5113960;28;19924;-59
2022/09/26 05:28:07;;;;;;;;;;;10.20;99.90;;;;;;5097458;28;19928;-59
2022/09/26 05:30:33;;;;;;;;;;;10.20;99.90;;;;;;5103141;27;19923;-59
2022/09/26 05:32:59;;;;;;;;;;;10.20;99.90;;;;;;5120954;27;19924;-59
2022/09/26 05:35:24;;;;;;;;;;;10.20;99.90;;;;;;5113876;28;19924;-59
2022/09/26 05:37:57;;;;;;;;;;;10.20;99.90;;;;;;5113862;28;19924;-59
2022/09/26 05:43:10;;;;;;;;;;;10.20;99.90;;;;;;5096497;28;19924;-59
2022/09/26 05:45:36;;;;;;;;;;;10.20;99.90;;;;;;5114621;28;20301;-59
2022/09/26 05:48:03;;;;;;;;;;;10.20;99.90;;;;;;5131245;27;20338;-59
2022/09/26 05:50:29;;;;;;;;;;;10.20;99.90;;;;;;5114122;28;19976;-59
2022/09/26 05:52:56;;;;;;;;;;;10.20;99.90;;;;;;5116241;27;20342;-59
2022/09/26 05:55:24;;;;;;;;;;;10.10;99.90;;;;;;5116910;27;20385;-59
2022/09/26 05:58:17;;;;;;;;;;;10.20;99.90;;;;;;5134781;27;19927;-59
2022/09/26 06:01:16;;;;;;;;;;;10.20;99.90;;;;;;5124566;27;20224;-59
2022/09/26 06:03:44;;;;;;;;;;;10.20;99.90;;;;;;5116895;27;20360;-59
2022/09/26 06:06:18;;;;;;;;;;;10.20;99.90;;;;;;5116279;27;19930;-59
2022/09/26 06:08:45;;;;;;;;;;;10.20;99.90;;;;;;5116780;27;21091;-59
2022/09/26 06:11:29;;;;;;;;;;;10.10;99.90;;;;;;5116792;27;19930;-59
2022/09/26 06:13:58;;;;;;;;;;;10.10;99.90;;;;;;5134888;27;19935;-59
2022/09/26 06:16:23;;;;;;;;;;;10.10;99.90;;;;;;5135374;27;19975;-59
2022/09/26 06:18:51;;;;;;;;;;;10.10;99.90;;;;;;5120071;27;19928;-59
2022/09/26 06:21:18;;;;;;;;;;;10.10;99.90;;;;;;5133997;27;19923;-59
2022/09/26 06:23:49;;;;;;;;;;;10.20;99.90;;;;;;5100163;27;19983;-59
2022/09/26 06:26:20;;;;;;;;;;;10.10;99.90;;;;;;5114297;27;19927;-59
2022/09/26 06:28:46;;;;;;;;;;;10.20;99.90;;;;;;5113576;28;19923;-59
2022/09/26 06:31:13;;;;;;;;;;;10.20;99.90;;;;;;5096079;28;19931;-60
2022/09/26 06:34:00;;;;;;;;;;;10.20;99.90;;;;;;5094905;28;19977;-59
2022/09/26 06:36:41;;;;;;;;;;;10.20;99.90;;;;;;5107262;28;19928;-59
2022/09/26 06:39:07;;;;;;;;;;;10.20;99.90;;;;;;5092929;27;19924;-60
2022/09/26 06:41:35;;;;;;;;;;;10.20;99.90;;;;;;5103047;28;20015;-59
2022/09/26 06:44:07;;;;;;;;;;;10.20;99.90;;;;;;5105586;27;20000;-59
2022/09/26 06:46:46;;;;;;;;;;;10.10;99.90;;;;;;5121701;27;19932;-60
2022/09/26 06:49:15;;;;;;;;;;;10.10;99.90;;;;;;5121846;27;19976;-59
2022/09/26 06:51:54;;;;;;;;;;;10.10;99.90;;;;;;5105286;27;19923;-59
2022/09/26 06:54:19;;;;;;;;;;;10.10;99.90;;;;;;5133180;27;19926;-59
2022/09/26 06:56:45;;;;;;;;;;;10.10;99.90;;;;;;5099170;27;19923;-61
2022/09/26 06:59:11;;;;;;;;;;;10.10;99.90;;;;;;5116234;27;19930;-61
2022/09/26 07:01:46;;;;;;;;;;;10.10;99.90;;;;;;5112345;27;19927;-61
2022/09/26 07:04:37;;;;;;;;;;;10.10;99.90;;;;;;5113639;28;19928;-60
2022/09/26 07:07:07;;;;;;;;;;;10.10;99.90;;;;;;5116026;27;20296;-60
2022/09/26 07:09:33;;;;;;;;;;;10.00;99.90;;;;;;5115441;27;19969;-60
2022/09/26 07:12:13;;;;;;;;;;;10.00;99.90;;;;;;5118762;27;19923;-61
2022/09/26 07:14:39;;;;;;;;;;;10.00;99.90;;;;;;5119069;27;20285;-61
2022/09/26 07:17:18;;;;;;;;;;;9.90;99.90;;;;;;5087845;28;19931;-60
2022/09/26 07:20:04;;;;;;;;;;;9.90;99.90;;;;;;5103517;28;20289;-61
2022/09/26 07:23:01;;;;;;;;;;;9.90;99.90;;;;;;5118588;27;19927;-61
2022/09/26 07:27:59;;;;;;;;;;;9.90;99.90;;;;;;5106042;27;19929;-60
2022/09/26 07:30:34;;;;;;;;;;;9.90;99.90;;;;;;5104600;28;19931;-60
2022/09/26 07:33:12;;;;;;;;;;;9.90;99.90;;;;;;5109530;28;19930;-60
2022/09/26 07:35:45;;;;;;;;;;;9.90;99.90;;;;;;5109878;28;19920;-60
2022/09/26 07:38:11;;;;;;;;;;;9.90;99.90;;;;;;5108986;28;19928;-60
2022/09/26 07:40:39;;;;;;;;;;;10.00;99.90;;;;;;5109743;28;19942;-61
2022/09/26 07:43:05;;;;;;;;;;;10.00;99.90;;;;;;5108881;28;20313;-61
2022/09/26 07:55:25;;;;;;;;;;;10.10;99.90;;;;;;5050846;27;9674;-60
2022/09/26 07:58:09;;;;;;;;;;;10.10;99.90;;;;;;5051089;28;1047;-60
2022/09/26 08:01:06;;;;;;;;;;;10.10;99.90;;;;;;5033053;28;1251;-60
2022/09/26 08:04:05;;;;;;;;;;;10.10;99.90;;;;;;5035284;28;1241;-60
2022/09/26 08:06:35;;;;;;;;;;;10.10;99.90;;;;;;5045529;28;9683;-60
2022/09/26 08:09:02;;;;;;;;;;;10.10;99.90;;;;;;5030032;28;1048;-60
2022/09/26 08:11:46;;;;;;;;;;;10.00;99.90;;;;;;5029793;28;9565;-64
2022/09/26 08:14:33;;;;;;;;;;;10.00;99.90;;;;;;5030142;28;1906;-60
2022/09/26 08:17:11;;;;;;;;;;;10.10;99.90;;;;;;5046574;28;837;-59
2022/09/26 08:19:36;;;;;;;;;;;10.10;99.90;;;;;;5028716;28;1240;-60
2022/09/26 08:22:04;;;;;;;;;;;10.10;99.90;;;;;;5035489;28;1232;-60
2022/09/26 08:24:30;;;;;;;;;;;10.10;99.90;;;;;;5029329;28;1232;-60
2022/09/26 08:27:02;;;;;;;;;;;10.10;99.90;;;;;;5028054;28;1268;-60
2022/09/26 08:29:31;;;;;;;;;;;10.20;99.90;;;;;;5030148;28;957;-60
2022/09/26 08:32:01;;;;;;;;;;;10.20;99.90;;;;;;5031880;28;1650;-60
2022/09/26 08:34:30;;;;;;;;;;;10.20;99.90;;;;;;5029405;28;1971;-60
2022/09/26 08:37:16;;;;;;;;;;;10.20;99.90;;;;;;5030790;28;1240;-60
2022/09/26 08:40:02;;;;;;;;;;;10.20;99.90;;;;;;5039270;28;1323;-60
2022/09/26 08:42:53;;;;;;;;;;;10.20;99.90;;;;;;5050460;28;1016;-60
2022/09/26 08:48:49;;;;;;;;;;;10.20;99.90;;;;;;5048560;28;1226;-59
2022/09/26 08:51:17;;;;;;;;;;;10.20;99.90;;;;;;5049777;28;1020;-60
2022/09/26 08:53:51;;;;;;;;;;;10.20;99.90;;;;;;5048077;28;1949;-60
2022/09/26 08:56:19;;;;;;;;;;;10.30;99.90;;;;;;5049266;28;1135;-60
2022/09/26 08:58:50;;;;;;;;;;;10.30;99.90;;;;;;5048633;28;1135;-60
2022/09/26 09:01:23;;;;;;;;;;;10.30;99.90;;;;;;5048082;28;1033;-60
2022/09/26 09:04:08;;;;;;;;;;;10.40;99.90;;;;;;5037330;28;1220;-60
2022/09/26 09:06:34;;;;;;;;;;;10.40;99.90;;;;;;5032051;28;3274;-60
2022/09/26 09:09:00;;;;;;;;;;;10.50;99.90;;;;;;5011770;28;3391;-60
2022/09/26 09:11:37;;;;;;;;;;;10.50;99.90;;;;;;5007588;28;3339;-60
2022/09/26 09:14:06;;;;;;;;;;;10.40;99.90;;;;;;5015631;28;1902;-60
2022/09/26 09:17:01;;;;;;;;;;;10.50;99.90;;;;;;5016508;28;1038;-60
2022/09/26 09:19:58;;;;;;;;;;;10.60;99.90;;;;;;5018350;28;1599;-60
2022/09/26 09:22:56;;;;;;;;;;;10.60;99.90;;;;;;5014171;28;1229;-60
2022/09/26 09:25:31;;;;;;;;;;;10.60;99.90;;;;;;5016575;28;2715;-60
2022/09/26 09:27:57;;;;;;;;;;;10.60;99.90;;;;;;5031803;28;953;-60
2022/09/26 09:30:27;;;;;;;;;;;10.60;99.90;;;;;;5027051;28;1308;-60
2022/09/26 09:32:57;;;;;;;;;;;10.60;99.90;;;;;;5024387;28;1579;-60
2022/09/26 09:35:37;;;;;;;;;;;10.70;99.90;;;;;;5035088;28;946;-60
2022/09/26 09:38:27;;;;;;;;;;;10.70;99.90;;;;;;5030269;28;1228;-60
2022/09/26 09:41:09;;;;;;;;;;;10.70;99.90;;;;;;5017687;28;1205;-60
2022/09/26 09:43:35;;;;;;;;;;;10.70;99.90;;;;;;5014656;28;869;-60
2022/09/26 09:46:11;;;;;;;;;;;10.70;99.90;;;;;;5031861;28;1210;-60
2022/09/26 09:48:37;;;;;;;;;;;10.70;99.90;;;;;;5034992;28;889;-60
2022/09/26 09:51:04;;;;;;;;;;;10.70;99.90;;;;;;5014228;28;1312;-60
2022/09/26 09:53:32;;;;;;;;;;;10.70;99.90;;;;;;5022608;28;1997;-60
2022/09/26 09:56:08;;;;;;;;;;;10.70;99.90;;;;;;5015490;28;1693;-60
2022/09/26 09:58:41;;;;;;;;;;;10.70;99.90;;;;;;4996442;28;1608;-60
2022/09/26 10:01:16;;;;;;;;;;;10.70;99.90;;;;;;5023533;28;1896;-60
2022/09/26 10:03:54;;;;;;;;;;;10.70;99.90;;;;;;5014403;28;1198;-60
2022/09/26 10:06:21;;;;;;;;;;;10.70;99.90;;;;;;4998597;28;1591;-60
2022/09/26 10:08:49;;;;;;;;;;;10.70;99.90;;;;;;5026067;28;1303;-60
2022/09/26 10:11:40;;;;;;;;;;;10.70;99.90;;;;;;5021062;28;3175;-60
2022/09/26 10:14:38;;;;;;;;;;;10.70;99.90;;;;;;5014673;28;1906;-60
2022/09/26 10:17:34;;;;;;;;;;;10.70;99.90;;;;;;5025636;28;1191;-60
2022/09/26 10:20:26;;;;;;;;;;;10.80;99.90;;;;;;5024950;28;1705;-60
2022/09/26 10:22:52;;;;;;;;;;;10.70;99.90;;;;;;5013826;28;1240;-60
2022/09/26 10:25:25;;;;;;;;;;;10.80;99.90;;;;;;5016559;28;1220;-60
2022/09/26 10:27:53;;;;;;;;;;;10.80;99.90;;;;;;5017619;28;1099;-60
2022/09/26 10:30:24;;;;;;;;;;;10.80;99.90;;;;;;5014419;28;1696;-60
2022/09/26 10:32:52;;;;;;;;;;;10.80;99.90;;;;;;5013788;28;1603;-60
2022/09/26 10:35:47;;;;;;;;;;;10.80;99.90;;;;;;5030767;28;1224;-60
2022/09/26 10:38:16;;;;;;;;;;;10.80;99.90;;;;;;5017118;28;1199;-60
2022/09/26 10:40:49;;;;;;;;;;;10.80;99.90;;;;;;5033769;28;873;-60
2022/09/26 10:43:16;;;;;;;;;;;10.80;99.90;;;;;;5017127;28;1156;-60
2022/09/26 10:45:42;;;;;;;;;;;10.80;99.90;;;;;;5014356;28;1327;-60
2022/09/26 10:48:46;;;;;;;;;;;10.80;99.90;;;;;;5013296;28;1232;-60
2022/09/26 10:51:34;;;;;;;;;;;10.80;99.90;;;;;;5012054;28;1208;-60
2022/09/26 10:54:08;;;;;;;;;;;10.90;99.90;;;;;;5020756;28;1981;-60
2022/09/26 10:56:37;;;;;;;;;;;10.80;99.90;;;;;;5013617;28;1236;-60
2022/09/26 10:59:07;;;;;;;;;;;10.80;99.90;;;;;;4987448;28;1257;-60
2022/09/26 11:01:37;;;;;;;;;;;10.90;99.90;;;;;;5021984;28;1176;-60
2022/09/26 11:04:11;;;;;;;;;;;10.90;99.90;;;;;;5033291;28;1111;-60
2022/09/26 11:06:58;;;;;;;;;;;11.00;99.90;;;;;;5014156;28;1264;-60
2022/09/26 11:09:32;;;;;;;;;;;11.00;99.90;;;;;;5006471;28;1178;-60
2022/09/26 11:12:25;;;;;;;;;;;11.10;99.90;;;;;;4995161;28;1302;-60
2022/09/26 11:14:58;;;;;;;;;;;11.10;99.90;;;;;;4994820;28;1985;-60
2022/09/26 11:17:38;;;;;;;;;;;11.10;99.90;;;;;;5013402;28;1366;-60
2022/09/26 11:20:08;;;;;;;;;;;11.10;99.90;;;;;;5015515;28;1300;-60
2022/09/26 11:22:37;;;;;;;;;;;11.10;99.90;;;;;;5012854;28;962;-60
2022/09/26 11:25:05;;;;;;;;;;;11.20;99.90;;;;;;5013409;28;1323;-60
2022/09/26 11:27:42;;;;;;;;;;;11.20;99.90;;;;;;4989227;28;1384;-60
2022/09/26 11:30:13;;;;;;;;;;;11.20;99.90;;;;;;5012540;28;1335;-60
2022/09/26 11:32:50;;;;;;;;;;;11.20;99.90;;;;;;4988619;28;1599;-60
2022/09/26 11:36:02;;;;;;;;;;;11.10;99.90;;;;;;4999466;28;3286;-60
2022/09/26 11:38:28;;;;;;;;;;;11.10;99.90;;;;;;5012764;28;3152;-59
2022/09/26 11:41:01;;;;;;;;;;;11.00;99.90;;;;;;5020958;28;3065;-60
2022/09/26 11:43:33;;;;;;;;;;;11.10;99.90;;;;;;5002567;28;1292;-60
2022/09/26 11:46:20;;;;;;;;;;;11.00;99.90;;;;;;5001561;28;1183;-60
2022/09/26 11:49:14;;;;;;;;;;;11.10;99.90;;;;;;4994692;28;1092;-60
2022/09/26 11:52:13;;;;;;;;;;;11.10;99.90;;;;;;5009747;28;1112;-60
2022/09/26 11:54:46;;;;;;;;;;;11.00;99.90;;;;;;5036452;28;3466;-60
2022/09/26 11:57:27;;;;;;;;;;;11.00;99.90;;;;;;5053798;28;981;-60
2022/09/26 11:59:54;;;;;;;;;;;11.00;99.90;;;;;;5042817;28;1248;-60
2022/09/26 12:02:30;;;;;;;;;;;11.00;99.90;;;;;;5033111;28;1203;-60
2022/09/26 12:05:15;;;;;;;;;;;11.00;99.90;;;;;;5019359;28;1638;-60
2022/09/26 12:07:54;;;;;;;;;;;11.00;99.90;;;;;;5034409;28;1056;-60
2022/09/26 12:10:27;;;;;;;;;;;11.00;99.90;;;;;;5015741;28;1069;-60
2022/09/26 12:12:56;;;;;;;;;;;11.00;99.90;;;;;;5028666;28;1132;-60
2022/09/26 12:15:30;;;;;;;;;;;10.90;99.90;;;;;;5052392;28;1910;-60
2022/09/26 12:18:03;;;;;;;;;;;11.00;99.90;;;;;;5043969;28;1376;-61
2022/09/26 12:20:31;;;;;;;;;;;11.00;99.90;;;;;;5017365;28;1275;-60
2022/09/26 12:22:57;;;;;;;;;;;11.00;99.90;;;;;;5032577;28;1397;-60
2022/09/26 12:25:24;;;;;;;;;;;11.00;99.90;;;;;;5015848;28;1307;-60
2022/09/26 12:27:57;;;;;;;;;;;11.00;99.90;;;;;;5033009;28;9692;-60
2022/09/26 12:30:25;;;;;;;;;;;11.00;99.90;;;;;;5045072;28;1270;-60
2022/09/26 12:33:09;;;;;;;;;;;11.10;99.90;;;;;;5040888;28;1546;-60
2022/09/26 12:35:41;;;;;;;;;;;11.10;99.90;;;;;;5033571;28;1011;-60
2022/09/26 12:38:24;;;;;;;;;;;11.10;99.90;;;;;;5035117;28;1153;-60
2022/09/26 12:40:56;;;;;;;;;;;11.10;99.90;;;;;;5024056;28;1190;-60
2022/09/26 12:43:25;;;;;;;;;;;11.20;99.90;;;;;;5019409;28;830;-60
2022/09/26 12:45:52;;;;;;;;;;;11.20;99.90;;;;;;5036930;28;969;-60
2022/09/26 12:48:29;;;;;;;;;;;11.20;99.90;;;;;;5050541;28;1143;-60
2022/09/26 12:50:54;;;;;;;;;;;11.20;99.90;;;;;;5056799;28;973;-60
2022/09/26 12:53:21;;;;;;;;;;;11.20;99.90;;;;;;5056416;28;1910;-60
2022/09/26 12:55:56;;;;;;;;;;;11.20;99.90;;;;;;5055440;28;1162;-60
2022/09/26 12:58:30;;;;;;;;;;;11.20;99.90;;;;;;5046690;28;1239;-60
2022/09/26 13:01:04;;;;;;;;;;;11.20;99.90;;;;;;5036453;28;1097;-60
2022/09/26 13:03:34;;;;;;;;;;;11.20;99.90;;;;;;5037386;28;1030;-60
2022/09/26 13:06:09;;;;;;;;;;;11.20;99.90;;;;;;5031612;28;1775;-60
2022/09/26 13:08:56;;;;;;;;;;;11.20;99.90;;;;;;5038011;28;1207;-60
2022/09/26 13:11:29;;;;;;;;;;;11.20;99.90;;;;;;5020434;28;3229;-59
2022/09/26 13:14:07;;;;;;;;;;;11.30;99.90;;;;;;5030011;28;3206;-60
2022/09/26 13:16:39;;;;;;;;;;;11.30;99.90;;;;;;5036062;28;3476;-60
2022/09/26 13:19:16;;;;;;;;;;;11.30;99.90;;;;;;5019070;28;3073;-60
2022/09/26 13:21:46;;;;;;;;;;;11.30;99.90;;;;;;5035245;28;1236;-60
2022/09/26 13:24:17;;;;;;;;;;;11.40;99.90;;;;;;5018867;28;1232;-60
2022/09/26 13:26:45;;;;;;;;;;;11.30;99.90;;;;;;5035613;28;1165;-60
2022/09/26 13:29:14;;;;;;;;;;;11.30;99.90;;;;;;5035778;28;1228;-60
2022/09/26 13:31:40;;;;;;;;;;;11.30;99.90;;;;;;5031700;28;2707;-60
2022/09/26 13:34:13;;;;;;;;;;;11.30;99.90;;;;;;5035054;28;1960;-60
2022/09/26 13:36:40;;;;;;;;;;;11.40;99.90;;;;;;5037595;28;1280;-60
2022/09/26 13:39:15;;;;;;;;;;;11.40;99.90;;;;;;5036224;28;1208;-60
2022/09/26 13:41:48;;;;;;;;;;;11.40;99.90;;;;;;5033520;28;1240;-60
2022/09/26 13:44:27;;;;;;;;;;;11.40;99.90;;;;;;5036659;28;1263;-60
2022/09/26 13:46:53;;;;;;;;;;;11.50;99.90;;;;;;5034828;28;1173;-60
2022/09/26 13:49:25;;;;;;;;;;;11.50;99.90;;;;;;5036622;28;1287;-60
2022/09/26 13:52:05;;;;;;;;;;;11.50;99.90;;;;;;5035890;28;1205;-60
2022/09/26 13:54:39;;;;;;;;;;;11.50;99.90;;;;;;5035871;28;1992;-60
2022/09/26 13:57:26;;;;;;;;;;;11.60;99.90;;;;;;5032678;28;1252;-60
2022/09/26 13:59:53;;;;;;;;;;;11.60;99.90;;;;;;5036067;28;1399;-59
2022/09/26 14:02:23;;;;;;;;;;;11.60;99.90;;;;;;5035499;28;1403;-60
2022/09/26 14:05:01;;;;;;;;;;;11.70;99.90;;;;;;5016664;28;1280;-60
2022/09/26 14:10:28;;;;;;;;;;;11.80;99.90;;;;;;5036584;28;1400;-60
2022/09/26 14:12:54;;;;;;;;;;;11.90;99.90;;;;;;5035190;28;1197;-60
2022/09/26 14:15:25;;;;;;;;;;;11.90;99.90;;;;;;5035483;28;1957;-60
2022/09/26 14:17:51;;;;;;;;;;;11.90;99.90;;;;;;5034712;28;1189;-60
2022/09/26 14:20:21;;;;;;;;;;;11.90;99.90;;;;;;5033843;28;1237;-60
2022/09/26 14:22:50;;;;;;;;;;;11.80;99.90;;;;;;5034911;28;1244;-60
2022/09/26 14:25:39;;;;;;;;;;;11.80;99.90;;;;;;5018986;28;1255;-60
2022/09/26 14:28:11;;;;;;;;;;;11.80;99.90;;;;;;5034671;28;2052;-60
2022/09/26 14:30:37;;;;;;;;;;;11.80;99.90;;;;;;5034500;28;1265;-60